• Join FlightAware (Why Join?)
  • Login
  • US Flag 
02:27AM EDT


 

Airport Tracker/Info


-or-


 

Live Flight TrackerFlight Track Log ✈ EJA929 ✈ 07-Jun-2013 ✈ KBDL - KTEB

Flight Track Log - Related Links

Times and Time Zones

All times are in EDT time to prevent confusion due to time zone crossing. See the EJA929 flight status page for this flight to view local times or setup timezone preferences in your user account.

Time Position Orientation Groundspeed Altitude Reporting Facility
EDT Latitude Longitude Course Direction KTS MPH feet Rate Location/Type
01:20AM 41.9478 -72.6744 25° Northeast 167 192 1,100  Level Boston Center
01:21AM 41.9958 -72.6439 25° Northeast 197 227 4,300 3,120 Climbing Boston Center
01:22AM 42.0228 -72.7250 294° West 139 160 7,600 2,760 Climbing Boston Center
01:23AM 41.9997 -72.8144 251° West 167 192 9,900 1,200 Climbing Boston Center
01:24AM 41.9472 -72.9119 234° Southwest 237 273 10,000  Climbing Boston Center
01:25AM 41.8883 -73.0231 235° Southwest 307 353 10,000  Level Boston Center
01:26AM 41.8419 -73.1144 236° Southwest 332 382 10,000  Level Boston Center
01:27AM 41.7850 -73.2253 235° Southwest 332 382 10,000  Level Boston Center
01:28AM 41.7342 -73.3219 235° Southwest 349 402 10,000  Level Boston Center
01:29AM 41.6708 -73.4378 234° Southwest 362 417 10,000  Level Boston Center
01:30AM 41.6197 -73.5314 234° Southwest 357 411 10,100  Climbing Boston Center
01:31AM 41.5647 -73.6358 235° Southwest 333 383 10,000 -660 Descending Boston Center
01:32AM 41.5242 -73.7072 233° Southwest 287 330 8,800 -1,440 Descending Boston Center
01:33AM 41.4794 -73.7894 234° Southwest 264 304 7,200 -960 Descending Boston Center
01:34AM 41.4500 -73.8500 237° Southwest 239 275 7,100 -60 Descending New York TRACON
01:35AM 41.4000 -73.9167 225° Southwest 248 285 7,100  Level New York TRACON
01:36AM 41.3500 -73.9667 217° Southwest 255 293 7,100 -480 Level New York TRACON
01:37AM 41.2833 -73.9833 191° South 245 282 6,200 -1,260 Descending New York TRACON
01:38AM 41.2167 -74.0000 191° South 239 275 4,600 -1,680 Descending New York TRACON
01:39AM 41.1500 -74.0167 191° South 236 272 3,100 -900 Descending New York TRACON
01:40AM 41.1000 -74.0333 194° South 199 229 3,000 -540 Descending New York TRACON
01:41AM 41.0500 -74.0500 194° South 186 214 2,100 -480 Descending New York TRACON
01:42AM 41.0000 -74.0500 180° South 190 219 2,100 -120 Level New York TRACON
01:42AM 40.9500 -74.0500 180° South 190 219 1,900 -540 Descending New York TRACON
01:43AM 40.9000 -74.0500 180° South 145 167 1,100 -840 Descending New York TRACON